Time;durP1;ratioP1;P1;durP2;ratioP2;P2;SDS_P1;SDS_P2;PMS_P1;PMS_P2;Temp;Humidity;BMP_temperature;BMP_pressure;BME280_temperature;BME280_humidity;BME280_pressure;Samples;Min_cycle;Max_cycle;Signal;HPM_P1;HPM_P2
2022/12/13 00:01:48;;;;;;;10.20;3.37;;;-2.30;99.90;;;;;;5095866;28;20454;-52
2022/12/13 00:04:16;;;;;;;8.30;3.00;;;-2.20;99.90;;;;;;5096301;28;20453;-50
2022/12/13 00:06:43;;;;;;;7.43;3.30;;;-2.20;99.90;;;;;;5096032;28;20554;-51
2022/12/13 00:09:12;;;;;;;7.53;3.80;;;-2.20;99.90;;;;;;5094526;28;20576;-54
2022/12/13 00:11:39;;;;;;;9.20;3.03;;;-2.30;99.90;;;;;;5094956;28;20446;-53
2022/12/13 00:14:06;;;;;;;8.07;2.37;;;-2.30;99.90;;;;;;5094909;28;20454;-56
2022/12/13 00:16:33;;;;;;;8.77;4.77;;;-2.20;99.90;;;;;;5094638;28;20481;-53
2022/12/13 00:19:01;;;;;;;5.57;2.27;;;-2.30;99.90;;;;;;5096055;28;20485;-53
2022/12/13 00:21:30;;;;;;;10.10;3.60;;;-2.30;99.90;;;;;;5095969;28;20445;-54
2022/12/13 00:23:57;;;;;;;7.97;3.17;;;-2.40;99.90;;;;;;5094797;28;20488;-53
2022/12/13 00:26:26;;;;;;;6.27;2.57;;;-2.50;99.90;;;;;;5095862;28;20528;-56
2022/12/13 00:28:53;;;;;;;8.20;2.83;;;-2.60;99.90;;;;;;5096022;28;20506;-54
2022/12/13 00:31:22;;;;;;;7.80;3.30;;;-2.60;99.90;;;;;;5094560;28;20481;-53
2022/12/13 00:33:50;;;;;;;7.63;3.50;;;-2.50;99.90;;;;;;5094086;28;20839;-55
2022/12/13 00:36:18;;;;;;;8.00;3.60;;;-2.50;99.90;;;;;;5094081;28;20833;-54
2022/12/13 00:38:45;;;;;;;6.97;4.13;;;-2.60;99.90;;;;;;5093637;28;20503;-50
2022/12/13 00:41:14;;;;;;;9.50;4.47;;;-2.70;99.90;;;;;;5094951;28;20802;-51
2022/12/13 00:43:42;;;;;;;9.13;3.60;;;-2.80;99.90;;;;;;5094299;28;20511;-51
2022/12/13 00:46:13;;;;;;;11.93;4.00;;;-2.80;99.90;;;;;;5094007;28;21049;-51
2022/12/13 00:48:41;;;;;;;8.90;3.20;;;-2.80;99.90;;;;;;5093792;28;20562;-55
2022/12/13 00:51:08;;;;;;;12.43;4.13;;;-2.80;99.90;;;;;;5094028;28;20449;-52
2022/12/13 00:53:36;;;;;;;5.73;3.37;;;-2.70;99.90;;;;;;5093175;28;20490;-52
2022/12/13 00:56:04;;;;;;;7.40;2.37;;;-2.80;99.90;;;;;;5092503;28;20485;-54
2022/12/13 00:58:31;;;;;;;8.80;4.57;;;-2.80;99.90;;;;;;5094159;28;20481;-54
2022/12/13 01:01:03;;;;;;;12.30;3.93;;;-2.80;99.90;;;;;;5096645;28;20445;-55
2022/12/13 01:03:30;;;;;;;11.70;3.60;;;-2.80;99.90;;;;;;5096763;28;20442;-53
2022/12/13 01:05:57;;;;;;;8.67;3.30;;;-2.80;99.90;;;;;;5096912;28;20481;-55
2022/12/13 01:08:24;;;;;;;8.70;3.80;;;-2.70;99.90;;;;;;5097149;28;20493;-53
2022/12/13 01:10:53;;;;;;;11.53;4.83;;;-2.60;99.90;;;;;;5098192;28;20429;-54
2022/12/13 01:13:20;;;;;;;8.43;4.07;;;-2.60;99.90;;;;;;5098861;28;20498;-53
2022/12/13 01:15:47;;;;;;;6.10;3.03;;;-2.60;99.90;;;;;;5098848;28;20538;-55
2022/12/13 01:18:17;;;;;;;11.60;4.67;;;-2.60;99.90;;;;;;5097473;28;20449;-56
2022/12/13 01:20:44;;;;;;;11.73;3.63;;;-2.60;99.90;;;;;;5097869;28;20503;-55
2022/12/13 01:23:11;;;;;;;7.80;3.60;;;-2.70;99.90;;;;;;5097717;28;20712;-55
2022/12/13 01:25:38;;;;;;;10.60;2.83;;;-2.70;99.90;;;;;;5095597;28;20510;-55
2022/12/13 01:28:07;;;;;;;5.93;3.00;;;-2.80;99.90;;;;;;5095972;28;20492;-54
2022/12/13 01:30:33;;;;;;;11.03;4.00;;;-2.80;99.90;;;;;;5096704;28;20485;-54
2022/12/13 01:33:00;;;;;;;9.03;3.73;;;-2.70;99.90;;;;;;5097294;28;20563;-54
2022/12/13 01:35:27;;;;;;;28.67;6.23;;;-2.70;99.90;;;;;;5097183;28;20845;-54
2022/12/13 01:37:54;;;;;;;8.50;3.33;;;-2.80;99.90;;;;;;5096928;28;20473;-55
2022/12/13 01:40:21;;;;;;;6.90;3.50;;;-2.80;99.90;;;;;;5098641;28;20502;-55
2022/12/13 01:42:48;;;;;;;10.60;4.13;;;-2.70;99.90;;;;;;5095635;28;20900;-54
2022/12/13 01:45:26;;;;;;;5.30;3.50;;;-2.70;99.90;;;;;;5098823;28;20932;-53
2022/12/13 01:47:56;;;;;;;4.90;3.07;;;-2.60;99.90;;;;;;5098748;28;20516;-54
2022/12/13 01:50:28;;;;;;;6.37;3.23;;;-2.50;99.90;;;;;;5098432;28;20528;-55
2022/12/13 01:52:56;;;;;;;11.33;4.90;;;-2.50;99.90;;;;;;5097249;28;20555;-55
2022/12/13 01:55:25;;;;;;;6.53;3.10;;;-2.60;99.90;;;;;;5098317;28;20470;-55
2022/12/13 01:57:54;;;;;;;8.67;3.13;;;-2.70;99.90;;;;;;5098138;28;20434;-55
2022/12/13 02:00:21;;;;;;;6.07;3.77;;;-2.80;99.90;;;;;;5097528;28;20441;-54
2022/12/13 02:02:50;;;;;;;9.87;4.57;;;-2.90;99.90;;;;;;5098130;28;20790;-53
2022/12/13 02:05:23;;;;;;;6.77;3.40;;;-3.00;99.90;;;;;;5094980;28;20489;-54
2022/12/13 02:07:51;;;;;;;10.20;3.40;;;-2.90;99.90;;;;;;5097688;28;20590;-53
2022/12/13 02:10:18;;;;;;;9.83;4.10;;;-3.00;99.90;;;;;;5097754;28;20488;-55
2022/12/13 02:12:45;;;;;;;12.10;3.57;;;-3.10;99.90;;;;;;5097010;28;20446;-56
2022/12/13 02:15:15;;;;;;;9.17;3.73;;;-3.10;99.90;;;;;;5077298;28;20486;-51
2022/12/13 02:18:01;;;;;;;6.97;1.97;;;-3.10;99.90;;;;;;5076618;28;20823;-49
2022/12/13 02:21:01;;;;;;;8.13;2.27;;;-2.90;99.90;;;;;;5076680;28;20878;-49
2022/12/13 02:24:24;;;;;;;11.47;3.87;;;-2.90;99.90;;;;;;5075820;28;20543;-53
2022/12/13 02:26:59;;;;;;;9.70;3.77;;;-2.90;99.90;;;;;;5075958;28;20488;-52
2022/12/13 02:29:56;;;;;;;7.70;2.10;;;-2.90;99.90;;;;;;5075572;28;20527;-53
2022/12/13 02:32:30;;;;;;;11.47;2.90;;;-2.90;99.90;;;;;;5076477;28;20881;-49
2022/12/13 02:35:02;;;;;;;11.47;3.90;;;-2.90;99.90;;;;;;5077338;28;20545;-55
2022/12/13 02:37:36;;;;;;;14.30;4.43;;;-3.10;99.90;;;;;;5076632;28;20446;-53
2022/12/13 02:40:09;;;;;;;9.23;4.00;;;-3.10;99.90;;;;;;5077847;28;20950;-55
2022/12/13 02:42:39;;;;;;;9.03;3.50;;;-3.20;99.90;;;;;;5077187;28;20462;-53
2022/12/13 02:45:10;;;;;;;8.90;3.50;;;-3.30;99.90;;;;;;5077373;28;20535;-54
2022/12/13 02:47:42;;;;;;;9.37;3.30;;;-3.30;99.90;;;;;;5077317;28;20839;-54
2022/12/13 02:50:11;;;;;;;7.17;3.23;;;-3.20;99.90;;;;;;5082248;28;20493;-54
2022/12/13 02:52:41;;;;;;;11.83;4.50;;;-3.20;99.90;;;;;;5097542;28;20442;-52
2022/12/13 02:55:12;;;;;;;9.50;3.67;;;-3.30;99.90;;;;;;5097215;28;20458;-54
2022/12/13 02:57:41;;;;;;;9.30;3.77;;;-3.30;99.90;;;;;;5097347;28;20476;-53
2022/12/13 03:00:11;;;;;;;12.23;5.10;;;-3.40;99.90;;;;;;5095194;28;20523;-51
2022/12/13 03:02:47;;;;;;;8.50;2.70;;;-3.40;99.90;;;;;;5097092;28;20537;-59
2022/12/13 03:08:21;;;;;;;15.00;3.57;;;-3.50;99.90;;;;;;5096027;28;20496;-53
2022/12/13 03:10:59;;;;;;;7.00;3.13;;;-3.70;99.90;;;;;;5094714;28;20947;-53
2022/12/13 03:13:37;;;;;;;5.70;2.67;;;-3.70;99.90;;;;;;5096211;28;20449;-54
2022/12/13 03:16:28;;;;;;;6.93;3.60;;;-3.60;99.90;;;;;;5096583;28;20741;-54
2022/12/13 03:19:00;;;;;;;8.93;3.30;;;-3.70;99.90;;;;;;5095095;28;20876;-54
2022/12/13 03:21:27;;;;;;;12.17;5.23;;;-3.70;99.90;;;;;;5095433;28;20542;-51
2022/12/13 03:23:54;;;;;;;7.33;2.83;;;-3.70;99.90;;;;;;5096296;28;20450;-52
2022/12/13 03:26:23;;;;;;;9.13;3.90;;;-3.70;99.90;;;;;;5096302;28;20481;-53
2022/12/13 03:28:51;;;;;;;6.37;2.90;;;-3.70;99.90;;;;;;5096340;28;20861;-53
2022/12/13 03:31:18;;;;;;;9.93;2.80;;;-3.60;99.90;;;;;;5095890;28;20492;-55
2022/12/13 03:33:45;;;;;;;7.97;2.37;;;-3.50;99.90;;;;;;5096426;28;20864;-54
2022/12/13 03:36:14;;;;;;;8.27;3.10;;;-3.40;99.90;;;;;;5096520;28;20538;-50
2022/12/13 03:38:42;;;;;;;12.27;3.23;;;-3.30;99.90;;;;;;5095864;28;20477;-50
2022/12/13 03:41:12;;;;;;;6.67;3.30;;;-3.30;99.90;;;;;;5096238;28;20477;-53
2022/12/13 03:43:40;;;;;;;10.83;5.27;;;-3.50;99.90;;;;;;5096385;28;20501;-50
2022/12/13 03:46:07;;;;;;;5.27;2.60;;;-3.40;99.90;;;;;;5095303;28;20451;-54
2022/12/13 03:48:34;;;;;;;9.40;3.43;;;-3.50;99.90;;;;;;5094055;28;20541;-50
2022/12/13 03:51:01;;;;;;;9.23;3.40;;;-3.70;99.90;;;;;;5094586;28;20453;-49
2022/12/13 03:53:30;;;;;;;10.70;4.40;;;-3.80;99.90;;;;;;5095093;28;20450;-51
2022/12/13 03:55:57;;;;;;;4.13;1.77;;;-3.80;99.90;;;;;;5095045;28;20469;-55
2022/12/13 03:58:24;;;;;;;8.20;3.10;;;-3.80;99.90;;;;;;5095287;28;20473;-52
2022/12/13 04:00:51;;;;;;;7.93;2.47;;;-3.80;99.90;;;;;;5095209;28;20546;-53
2022/12/13 04:03:18;;;;;;;8.40;3.63;;;-3.70;99.90;;;;;;5096212;28;20446;-53
2022/12/13 04:05:45;;;;;;;9.77;3.40;;;-3.70;99.90;;;;;;5096516;28;20492;-51
2022/12/13 04:08:12;;;;;;;11.57;2.47;;;-3.70;99.90;;;;;;5095624;28;20521;-53
2022/12/13 04:10:40;;;;;;;10.80;4.30;;;-3.70;99.90;;;;;;5095773;28;21130;-54
2022/12/13 04:15:51;;;;;;;10.53;3.93;;;-3.70;99.90;;;;;;5095734;28;20524;-53
2022/12/13 04:18:19;;;;;;;5.43;3.10;;;-3.60;99.90;;;;;;5095917;28;20481;-54
2022/12/13 04:20:47;;;;;;;6.60;3.70;;;-3.60;99.90;;;;;;5096171;28;20531;-52
2022/12/13 04:23:14;;;;;;;12.73;3.40;;;-3.50;99.90;;;;;;5096078;28;20488;-51
2022/12/13 04:25:43;;;;;;;7.93;3.33;;;-3.60;99.90;;;;;;5095979;28;20461;-52
2022/12/13 04:28:10;;;;;;;6.57;3.83;;;-3.70;99.90;;;;;;5096009;28;20539;-51
2022/12/13 04:30:37;;;;;;;8.37;2.57;;;-3.70;99.90;;;;;;5096466;28;20453;-52
2022/12/13 04:33:04;;;;;;;5.40;2.57;;;-3.90;99.90;;;;;;5098184;28;20442;-52
2022/12/13 04:35:31;;;;;;;9.70;3.83;;;-3.90;99.90;;;;;;5099896;28;20458;-48
2022/12/13 04:37:58;;;;;;;8.37;3.50;;;-3.60;99.90;;;;;;5100170;28;20808;-49
2022/12/13 04:40:25;;;;;;;6.33;2.97;;;-3.50;99.90;;;;;;5100163;28;20500;-51
2022/12/13 04:42:54;;;;;;;6.50;2.97;;;-3.50;99.90;;;;;;5099551;28;20473;-54
2022/12/13 04:45:22;;;;;;;8.10;2.77;;;-3.60;99.90;;;;;;5099682;28;20489;-52
2022/12/13 04:47:49;;;;;;;10.60;2.90;;;-3.60;99.90;;;;;;5099509;28;20474;-54
2022/12/13 04:50:17;;;;;;;9.53;2.67;;;-3.50;99.90;;;;;;5099965;28;20481;-54
2022/12/13 04:52:44;;;;;;;9.60;2.90;;;-3.40;99.90;;;;;;5099663;28;20465;-52
2022/12/13 04:55:11;;;;;;;3.90;2.53;;;-3.40;99.90;;;;;;5099712;28;20757;-54
2022/12/13 04:57:38;;;;;;;8.63;3.67;;;-3.50;99.90;;;;;;5099802;28;20445;-49
2022/12/13 05:00:09;;;;;;;6.50;2.70;;;-3.40;99.90;;;;;;5099168;28;20503;-53
2022/12/13 05:02:36;;;;;;;11.37;2.80;;;-3.40;99.90;;;;;;5099980;28;20788;-50
2022/12/13 05:05:04;;;;;;;10.33;4.60;;;-3.40;99.90;;;;;;5099437;28;20450;-50
2022/12/13 05:07:31;;;;;;;4.03;1.93;;;-3.50;99.90;;;;;;5098883;28;20842;-50
2022/12/13 05:09:58;;;;;;;8.67;2.73;;;-3.60;99.90;;;;;;5099443;28;20477;-52
2022/12/13 05:12:24;;;;;;;11.43;3.27;;;-3.70;99.90;;;;;;5099184;28;20445;-54
2022/12/13 05:14:51;;;;;;;8.57;3.90;;;-3.70;99.90;;;;;;5099322;28;20481;-52
2022/12/13 05:17:20;;;;;;;6.03;4.37;;;-3.60;99.90;;;;;;5099057;28;20445;-51
2022/12/13 05:19:47;;;;;;;12.03;3.30;;;-3.80;99.90;;;;;;5097760;28;20453;-50
2022/12/13 05:22:15;;;;;;;10.30;3.90;;;-3.60;99.90;;;;;;5097519;28;20484;-52
2022/12/13 05:24:43;;;;;;;13.23;6.63;;;-3.70;99.90;;;;;;5098231;28;20534;-51
2022/12/13 05:27:10;;;;;;;10.07;3.70;;;-3.50;99.90;;;;;;5098841;28;20540;-51
2022/12/13 05:29:38;;;;;;;9.10;4.20;;;-3.40;99.90;;;;;;5098153;28;20521;-53
2022/12/13 05:32:05;;;;;;;9.87;4.00;;;-3.30;99.90;;;;;;5098187;28;20448;-50
2022/12/13 05:34:33;;;;;;;15.00;4.87;;;-3.30;99.90;;;;;;5098480;28;20457;-54
2022/12/13 05:37:00;;;;;;;11.10;3.63;;;-3.30;99.90;;;;;;5098512;28;20484;-52
2022/12/13 05:39:27;;;;;;;12.77;3.17;;;-3.20;99.90;;;;;;5098354;28;20503;-53
2022/12/13 05:41:55;;;;;;;11.20;3.97;;;-3.20;99.90;;;;;;5097817;28;20449;-54
2022/12/13 05:44:23;;;;;;;9.40;5.40;;;-3.10;99.90;;;;;;5097875;28;20522;-53
2022/12/13 05:46:50;;;;;;;8.67;3.47;;;-3.20;99.90;;;;;;5098258;28;20460;-53
2022/12/13 05:49:17;;;;;;;10.03;4.70;;;-3.10;99.90;;;;;;5097688;28;20881;-49
2022/12/13 05:51:45;;;;;;;34.17;4.77;;;-3.20;99.90;;;;;;5093787;28;20496;-52
2022/12/13 05:54:12;;;;;;;7.20;2.20;;;-3.10;99.90;;;;;;5097904;28;20813;-53
2022/12/13 05:56:39;;;;;;;10.50;3.73;;;-3.00;99.90;;;;;;5097203;28;20475;-53
2022/12/13 05:59:05;;;;;;;17.23;3.43;;;-3.00;99.90;;;;;;5095699;28;20901;-51
2022/12/13 06:01:32;;;;;;;6.23;2.37;;;-3.20;99.90;;;;;;5094546;28;20528;-52
2022/12/13 06:03:59;;;;;;;6.27;2.80;;;-3.40;99.90;;;;;;5096879;28;20514;-51
2022/12/13 06:06:26;;;;;;;7.63;2.23;;;-3.60;99.90;;;;;;5095894;28;20485;-50
2022/12/13 06:08:54;;;;;;;6.37;2.60;;;-3.70;99.90;;;;;;5093782;28;20516;-50
2022/12/13 06:11:22;;;;;;;7.87;2.50;;;-3.70;99.90;;;;;;5095791;28;21163;-54
2022/12/13 06:13:51;;;;;;;10.73;2.90;;;-3.70;99.90;;;;;;5096553;28;20449;-54
2022/12/13 06:16:18;;;;;;;13.63;4.17;;;-3.80;99.90;;;;;;5096578;28;20452;-53
2022/12/13 06:18:45;;;;;;;4.40;2.33;;;-3.70;99.90;;;;;;5084934;28;20466;-55
2022/12/13 06:21:12;;;;;;;10.63;3.67;;;-3.50;99.90;;;;;;5076140;28;20485;-57
2022/12/13 06:23:39;;;;;;;6.93;3.77;;;-3.20;99.90;;;;;;5076488;28;20470;-55
2022/12/13 06:26:08;;;;;;;12.80;4.47;;;-3.10;99.90;;;;;;5076467;28;20446;-59
2022/12/13 06:28:34;;;;;;;10.00;3.37;;;-3.00;99.90;;;;;;5080617;28;20512;-54
2022/12/13 06:31:03;;;;;;;9.63;4.60;;;-3.20;99.90;;;;;;5094612;28;20543;-55
2022/12/13 06:33:34;;;;;;;9.47;3.87;;;-3.50;99.90;;;;;;5094979;28;20437;-52
2022/12/13 06:36:01;;;;;;;9.17;3.73;;;-3.50;99.90;;;;;;5096261;28;20928;-54
2022/12/13 06:38:28;;;;;;;12.80;3.57;;;-3.50;99.90;;;;;;5093797;28;20515;-49
2022/12/13 06:40:55;;;;;;;7.60;2.43;;;-3.60;99.90;;;;;;5096323;28;20473;-55
2022/12/13 06:43:23;;;;;;;7.40;3.60;;;-3.60;99.90;;;;;;5096304;28;20512;-52
2022/12/13 06:45:50;;;;;;;9.83;2.43;;;-3.60;99.90;;;;;;5092299;28;20454;-55
2022/12/13 06:48:17;;;;;;;7.50;2.17;;;-3.70;99.90;;;;;;5074191;28;20514;-54
2022/12/13 06:50:44;;;;;;;17.07;4.70;;;-3.70;99.90;;;;;;5075890;28;20501;-55
2022/12/13 06:53:11;;;;;;;7.70;3.70;;;-3.70;99.90;;;;;;5073745;28;20486;-53
2022/12/13 06:55:38;;;;;;;9.70;2.90;;;-3.70;99.90;;;;;;5072831;28;20486;-51
2022/12/13 06:58:05;;;;;;;6.53;2.43;;;-3.70;99.90;;;;;;5074723;28;20533;-51
2022/12/13 07:00:33;;;;;;;12.83;5.23;;;-3.60;99.90;;;;;;5075000;28;20462;-53
2022/12/13 07:03:00;;;;;;;6.20;4.00;;;-3.60;99.90;;;;;;5074148;28;20519;-54
2022/12/13 07:05:31;;;;;;;6.10;2.90;;;-3.70;99.90;;;;;;5073981;28;20808;-54
2022/12/13 07:07:58;;;;;;;6.70;2.33;;;-3.80;99.90;;;;;;5073241;28;20446;-53
2022/12/13 07:10:25;;;;;;;7.93;3.10;;;-3.70;99.90;;;;;;5074756;28;20450;-53
2022/12/13 07:12:52;;;;;;;8.60;3.60;;;-3.90;99.90;;;;;;5075159;28;20812;-54
2022/12/13 07:15:19;;;;;;;5.20;1.67;;;-4.00;99.90;;;;;;5073561;28;20675;-54
2022/12/13 07:17:51;;;;;;;10.97;4.67;;;-3.80;99.90;;;;;;5073023;28;20446;-55
2022/12/13 07:20:19;;;;;;;8.83;2.47;;;-3.70;99.90;;;;;;5087540;28;21064;-51
2022/12/13 07:22:51;;;;;;;3.83;1.80;;;-3.80;99.90;;;;;;5092830;28;20508;-55
2022/12/13 07:25:20;;;;;;;7.57;3.83;;;-3.00;99.90;;;;;;5092689;28;20457;-55
2022/12/13 07:27:47;;;;;;;8.77;2.90;;;-3.00;99.90;;;;;;5091547;28;20807;-53
2022/12/13 07:30:14;;;;;;;10.53;2.93;;;-3.20;99.90;;;;;;5092689;28;20579;-54
2022/12/13 07:32:41;;;;;;;4.97;2.17;;;-3.30;99.90;;;;;;5088405;28;20954;-51
2022/12/13 07:35:10;;;;;;;5.23;2.30;;;-3.30;99.90;;;;;;5090328;28;20487;-52
2022/12/13 07:37:37;;;;;;;6.60;1.70;;;-3.40;99.90;;;;;;5087908;28;20727;-50
2022/12/13 07:40:04;;;;;;;5.47;2.43;;;-3.40;99.90;;;;;;5091157;28;20510;-51
2022/12/13 07:42:31;;;;;;;11.10;3.17;;;-3.40;99.90;;;;;;5089995;28;20473;-52
2022/12/13 07:44:58;;;;;;;8.07;3.53;;;-3.50;99.90;;;;;;5090929;28;20553;-51
2022/12/13 07:47:29;;;;;;;7.93;3.80;;;-3.50;99.90;;;;;;5089745;28;20450;-55
2022/12/13 07:49:56;;;;;;;5.27;2.20;;;-3.70;99.90;;;;;;5091108;28;20497;-53
2022/12/13 07:52:24;;;;;;;5.27;1.80;;;-3.70;99.90;;;;;;5091443;28;20499;-55
2022/12/13 07:54:51;;;;;;;8.90;3.60;;;-3.40;99.90;;;;;;5089357;28;21106;-54
2022/12/13 07:57:18;;;;;;;8.53;3.67;;;-3.40;99.90;;;;;;5091696;28;20583;-54
2022/12/13 07:59:45;;;;;;;9.00;3.40;;;-3.40;99.90;;;;;;5093696;28;20450;-55
2022/12/13 08:02:16;;;;;;;6.63;2.93;;;-3.30;99.90;;;;;;5092614;28;20465;-53
2022/12/13 08:04:43;;;;;;;11.27;3.97;;;-3.20;99.90;;;;;;5093954;28;20517;-51
2022/12/13 08:07:10;;;;;;;5.00;2.33;;;-3.30;99.90;;;;;;5090825;28;20477;-53
2022/12/13 08:09:39;;;;;;;11.93;2.60;;;-3.20;99.90;;;;;;5087742;28;20521;-52
2022/12/13 08:12:06;;;;;;;9.20;3.60;;;-3.10;99.90;;;;;;5074408;28;20462;-54
2022/12/13 08:14:33;;;;;;;6.50;2.80;;;-3.00;99.90;;;;;;5075915;28;20519;-52
2022/12/13 08:17:00;;;;;;;6.17;2.13;;;-3.10;99.90;;;;;;5084689;28;20442;-51
2022/12/13 08:19:27;;;;;;;13.30;3.33;;;-3.20;99.90;;;;;;5093056;28;20449;-50
2022/12/13 08:21:55;;;;;;;9.80;4.17;;;-3.20;99.90;;;;;;5075538;28;20466;-54
2022/12/13 08:24:23;;;;;;;7.63;2.67;;;-3.20;99.90;;;;;;5060378;28;20458;-53
2022/12/13 08:26:51;;;;;;;8.77;3.00;;;-3.10;99.90;;;;;;5062844;28;20459;-50
2022/12/13 08:29:18;;;;;;;9.53;3.27;;;-2.90;99.90;;;;;;5067020;28;20514;-48
2022/12/13 08:31:46;;;;;;;7.90;2.80;;;-2.60;99.90;;;;;;5070752;28;20486;-54
2022/12/13 08:34:12;;;;;;;5.83;2.80;;;-2.50;99.90;;;;;;5069923;28;20592;-50
2022/12/13 08:36:40;;;;;;;4.07;1.63;;;-2.60;99.90;;;;;;5073866;28;20496;-53
2022/12/13 08:39:07;;;;;;;4.63;1.40;;;-2.80;99.90;;;;;;5072281;28;20447;-50
2022/12/13 08:41:34;;;;;;;5.03;2.03;;;-2.70;99.90;;;;;;5070835;28;20473;-54
2022/12/13 08:44:02;;;;;;;8.10;1.87;;;-2.60;99.90;;;;;;5070739;28;20454;-48
2022/12/13 08:46:29;;;;;;;4.07;1.80;;;-2.70;99.90;;;;;;5070588;28;20505;-51
2022/12/13 08:48:56;;;;;;;7.57;3.20;;;-2.70;99.90;;;;;;5068504;28;20489;-52
2022/12/13 08:51:24;;;;;;;5.17;2.07;;;-2.60;99.90;;;;;;5072782;28;20765;-50
2022/12/13 08:53:51;;;;;;;8.20;3.00;;;-2.80;99.90;;;;;;5086928;28;20450;-52
2022/12/13 08:56:19;;;;;;;6.03;2.70;;;-2.70;99.90;;;;;;5082514;28;20554;-51
2022/12/13 08:58:50;;;;;;;7.77;3.30;;;-2.70;99.90;;;;;;5079169;28;20450;-49
2022/12/13 09:01:19;;;;;;;10.00;3.07;;;-2.40;99.90;;;;;;5086891;28;20869;-51
2022/12/13 09:03:46;;;;;;;7.07;1.70;;;-2.50;99.90;;;;;;5088035;28;20453;-51
2022/12/13 09:06:15;;;;;;;8.87;2.67;;;-2.60;99.90;;;;;;5083039;28;20529;-48
2022/12/13 09:08:43;;;;;;;5.30;2.33;;;-2.80;99.90;;;;;;5080550;28;20477;-51
2022/12/13 09:11:11;;;;;;;6.07;2.90;;;-2.80;99.90;;;;;;5087086;28;20453;-48
2022/12/13 09:13:39;;;;;;;7.90;3.00;;;-3.00;99.90;;;;;;5087320;28;20544;-48
2022/12/13 09:16:09;;;;;;;6.70;2.33;;;-3.00;99.90;;;;;;5084942;28;20533;-52
2022/12/13 09:18:37;;;;;;;5.83;2.23;;;-2.90;99.90;;;;;;5080891;28;20438;-54
2022/12/13 09:21:10;;;;;;;7.37;2.97;;;-2.70;99.90;;;;;;5091660;28;20480;-51
2022/12/13 09:23:38;;;;;;;5.27;2.50;;;-2.60;99.90;;;;;;5090915;28;20499;-51
2022/12/13 09:26:06;;;;;;;6.57;2.40;;;-2.30;99.90;;;;;;5088887;28;20556;-54
2022/12/13 09:28:33;;;;;;;7.70;2.60;;;-2.20;99.90;;;;;;5091513;28;20501;-54
2022/12/13 09:31:00;;;;;;;12.63;3.87;;;-2.10;99.90;;;;;;5102224;28;20456;-55
2022/12/13 09:33:27;;;;;;;3.87;2.03;;;-2.20;99.90;;;;;;5104892;28;20485;-54
2022/12/13 09:35:55;;;;;;;4.57;2.57;;;-2.30;99.90;;;;;;5086429;28;20856;-53
2022/12/13 09:38:22;;;;;;;5.20;1.83;;;-2.30;99.90;;;;;;5086985;28;20758;-53
2022/12/13 09:40:53;;;;;;;4.67;1.63;;;-2.30;99.90;;;;;;5079896;28;20469;-54
2022/12/13 09:43:23;;;;;;;6.60;1.80;;;-2.10;99.90;;;;;;5076521;28;20950;-52
2022/12/13 09:45:51;;;;;;;6.90;1.90;;;-1.70;99.90;;;;;;5078060;28;20472;-55
2022/12/13 09:48:20;;;;;;;8.47;2.60;;;-1.70;99.90;;;;;;5093116;28;20446;-55
2022/12/13 09:50:48;;;;;;;3.37;1.37;;;-1.60;99.90;;;;;;5092875;28;20992;-55
2022/12/13 09:53:19;;;;;;;5.80;1.90;;;-1.50;99.90;;;;;;5093080;28;20951;-51
2022/12/13 09:55:51;;;;;;;3.77;1.47;;;-1.50;99.90;;;;;;5086178;28;20467;-54
2022/12/13 09:58:21;;;;;;;6.00;2.07;;;-1.40;99.90;;;;;;5094700;28;20947;-54
2022/12/13 10:00:51;;;;;;;5.50;1.73;;;-1.20;99.90;;;;;;5094960;28;20545;-55
2022/12/13 10:03:20;;;;;;;7.60;2.50;;;-1.20;99.90;;;;;;5094244;28;20461;-55
2022/12/13 10:05:57;;;;;;;6.60;2.37;;;-1.30;99.90;;;;;;5094912;28;20461;-54
2022/12/13 10:08:31;;;;;;;2.87;1.00;;;-1.00;99.90;;;;;;5092891;28;20517;-57
2022/12/13 10:10:58;;;;;;;6.37;1.73;;;-0.90;99.90;;;;;;5082891;28;20597;-56
2022/12/13 10:13:37;;;;;;;4.70;1.90;;;-1.00;99.90;;;;;;5095625;28;20497;-53
2022/12/13 10:16:09;;;;;;;5.30;1.73;;;-1.10;99.90;;;;;;5095652;28;20461;-52
2022/12/13 10:18:38;;;;;;;5.23;1.83;;;-1.10;99.90;;;;;;5094985;28;20491;-52
2022/12/13 10:21:10;;;;;;;6.57;1.80;;;-1.20;99.90;;;;;;5094498;28;20560;-54
2022/12/13 10:23:38;;;;;;;6.80;2.40;;;-1.10;99.90;;;;;;5091453;28;20465;-53
2022/12/13 10:26:10;;;;;;;7.03;2.00;;;-1.10;99.90;;;;;;5078877;28;20981;-54
2022/12/13 10:28:37;;;;;;;5.73;2.00;;;-1.10;99.90;;;;;;5074639;28;20443;-54
2022/12/13 10:31:05;;;;;;;6.33;2.30;;;-1.00;99.90;;;;;;5075124;28;20470;-52
2022/12/13 10:33:34;;;;;;;5.70;1.53;;;-1.10;99.90;;;;;;5092815;28;20888;-54
2022/12/13 10:36:16;;;;;;;7.00;1.87;;;-1.10;99.90;;;;;;5091911;28;20499;-52
2022/12/13 10:38:46;;;;;;;7.37;2.67;;;-1.10;99.90;;;;;;5092550;28;20457;-54
2022/12/13 10:41:30;;;;;;;8.70;2.33;;;-1.10;99.90;;;;;;5093329;28;20503;-54
2022/12/13 10:44:09;;;;;;;5.20;1.97;;;-1.30;99.90;;;;;;5085637;28;20526;-56
2022/12/13 10:46:36;;;;;;;5.80;2.03;;;-1.30;99.90;;;;;;5091756;28;20462;-55
2022/12/13 10:49:03;;;;;;;6.77;1.93;;;-1.40;99.90;;;;;;5090324;28;20464;-56
2022/12/13 10:51:38;;;;;;;8.43;1.60;;;-1.30;99.90;;;;;;5091543;28;20941;-53
2022/12/13 10:54:16;;;;;;;5.67;1.80;;;-1.40;99.90;;;;;;5092041;28;20800;-55
2022/12/13 10:56:46;;;;;;;7.60;2.40;;;-1.30;99.90;;;;;;5087785;28;20582;-54
2022/12/13 10:59:30;;;;;;;9.27;1.70;;;-1.20;99.90;;;;;;5091059;28;20893;-55
2022/12/13 11:01:58;;;;;;;4.90;2.43;;;-1.10;99.90;;;;;;5086154;28;20486;-58
2022/12/13 11:04:30;;;;;;;8.50;2.33;;;-0.90;99.90;;;;;;5090240;28;20509;-58
2022/12/13 11:06:58;;;;;;;6.90;1.73;;;-0.90;99.90;;;;;;5093428;28;20767;-58
2022/12/13 11:09:29;;;;;;;5.37;2.03;;;-1.10;99.90;;;;;;5091698;28;20576;-59
2022/12/13 11:12:00;;;;;;;6.50;2.33;;;-1.10;99.90;;;;;;5091256;28;21259;-58
2022/12/13 11:14:31;;;;;;;4.80;1.57;;;-1.10;99.90;;;;;;5087884;28;20493;-59
2022/12/13 11:17:04;;;;;;;2.73;1.60;;;-1.00;99.90;;;;;;5091995;28;20824;-58
2022/12/13 11:19:37;;;;;;;4.23;1.63;;;-0.80;99.90;;;;;;5091461;28;20521;-53
2022/12/13 11:22:05;;;;;;;6.60;1.90;;;-0.60;99.90;;;;;;5086312;28;20532;-54
2022/12/13 11:24:37;;;;;;;5.00;2.03;;;-0.40;99.90;;;;;;5082239;28;20500;-55
2022/12/13 11:27:20;;;;;;;7.90;1.67;;;-0.30;99.90;;;;;;5075592;28;20544;-55
2022/12/13 11:30:00;;;;;;;3.50;1.20;;;-0.50;99.90;;;;;;5088697;28;20473;-52
2022/12/13 11:32:38;;;;;;;4.70;1.20;;;-0.60;99.90;;;;;;5091161;28;20550;-52
2022/12/13 11:35:13;;;;;;;3.53;1.30;;;-0.60;99.90;;;;;;5090424;28;20873;-53
2022/12/13 11:37:45;;;;;;;7.80;1.83;;;-0.60;99.90;;;;;;5089089;28;20829;-55
2022/12/13 11:40:17;;;;;;;5.43;1.67;;;-0.50;99.90;;;;;;5087903;28;20545;-56
2022/12/13 11:42:52;;;;;;;4.37;1.43;;;-0.70;99.90;;;;;;5084179;28;20507;-52
2022/12/13 11:45:23;;;;;;;9.07;4.30;;;-0.80;99.90;;;;;;5081770;28;20995;-56
2022/12/13 11:48:01;;;;;;;4.80;1.90;;;-0.60;99.90;;;;;;5087602;28;20457;-55
2022/12/13 11:50:34;;;;;;;3.30;1.80;;;-0.40;99.90;;;;;;5100052;28;20957;-54
2022/12/13 11:53:17;;;;;;;8.23;2.23;;;-0.20;99.90;;;;;;5092806;28;20484;-57
2022/12/13 11:55:52;;;;;;;5.30;2.00;;;0.00;99.90;;;;;;5090384;28;20915;-51
2022/12/13 11:58:24;;;;;;;5.70;1.70;;;0.00;99.90;;;;;;5089693;28;20494;-54
2022/12/13 12:00:57;;;;;;;5.60;2.30;;;0.00;99.90;;;;;;5090741;28;20459;-54
2022/12/13 12:03:35;;;;;;;5.23;1.70;;;0.00;99.90;;;;;;5089648;28;20665;-54
2022/12/13 12:06:09;;;;;;;5.50;2.13;;;0.00;99.90;;;;;;5098738;28;20459;-54
2022/12/13 12:08:43;;;;;;;4.07;1.60;;;0.00;99.90;;;;;;5069916;28;20521;-55
2022/12/13 12:11:17;;;;;;;7.90;1.83;;;-0.10;99.90;;;;;;5077612;28;20486;-55
2022/12/13 12:13:48;;;;;;;5.40;2.13;;;0.00;99.90;;;;;;5091786;28;20665;-56
2022/12/13 12:16:30;;;;;;;3.50;1.47;;;-0.10;99.90;;;;;;5089708;28;20974;-54
2022/12/13 12:18:58;;;;;;;5.83;2.07;;;-0.20;99.90;;;;;;5085424;28;20488;-55
2022/12/13 12:21:35;;;;;;;3.17;1.37;;;-0.10;99.90;;;;;;5088872;28;20741;-59
2022/12/13 12:24:12;;;;;;;6.03;2.53;;;0.00;99.90;;;;;;5088144;28;20467;-55
2022/12/13 12:26:54;;;;;;;6.53;1.93;;;-0.10;99.90;;;;;;5089716;28;20710;-56
2022/12/13 12:29:49;;;;;;;8.27;2.20;;;-0.10;99.90;;;;;;5069572;28;20476;-58
2022/12/13 12:32:28;;;;;;;7.63;2.10;;;0.00;99.90;;;;;;5077138;28;20548;-56
2022/12/13 12:35:07;;;;;;;6.50;2.30;;;0.30;99.90;;;;;;5092111;28;20842;-57
2022/12/13 12:37:45;;;;;;;13.50;3.63;;;0.30;99.90;;;;;;5086933;28;20761;-55
2022/12/13 12:40:36;;;;;;;5.40;1.77;;;0.20;99.90;;;;;;5091294;28;20908;-55
2022/12/13 12:43:12;;;;;;;9.10;3.30;;;0.10;99.90;;;;;;5092077;28;20916;-57
2022/12/13 12:45:53;;;;;;;2.43;1.53;;;0.00;99.90;;;;;;5092887;28;20445;-56
2022/12/13 12:48:38;;;;;;;4.80;1.73;;;0.00;99.90;;;;;;5079773;28;20902;-57
2022/12/13 12:51:10;;;;;;;5.77;2.77;;;0.00;99.90;;;;;;5091739;28;20880;-58
2022/12/13 12:53:44;;;;;;;9.03;2.80;;;0.00;99.90;;;;;;5091013;28;20493;-57
2022/12/13 12:56:28;;;;;;;8.57;3.40;;;0.00;99.90;;;;;;5093248;28;20492;-56
2022/12/13 12:59:04;;;;;;;6.60;1.77;;;-0.10;99.90;;;;;;5091173;28;20471;-55
2022/12/13 13:01:44;;;;;;;7.70;2.40;;;-0.10;99.90;;;;;;5074701;28;20885;-53
2022/12/13 13:04:13;;;;;;;5.53;2.33;;;0.00;99.90;;;;;;5073501;28;20438;-53
2022/12/13 13:06:44;;;;;;;8.33;2.17;;;0.20;99.90;;;;;;5078506;28;21084;-54